Time;durP1;ratioP1;P1;durP2;ratioP2;P2;SDS_P1;SDS_P2;PMS_P1;PMS_P2;Temp;Humidity;BMP_temperature;BMP_pressure;BME280_temperature;BME280_humidity;BME280_pressure;Samples;Min_cycle;Max_cycle;Signal;HPM_P1;HPM_P2
2022/09/20 00:11:58;;;;;;;;;;;;;;;;;;5047361;28;19929;-76
2022/09/20 00:14:24;;;;;;;;;;;;;;;;;;5044514;28;46061;-76
2022/09/20 00:16:50;;;;;;;;;;;;;;;;;;5047265;28;48406;-76
2022/09/20 00:19:17;;;;;;;;;;;;;;;;;;5041866;28;44363;-76
2022/09/20 00:21:43;;;;;;;;;;;;;;;;;;5063321;28;44952;-77
2022/09/20 00:24:09;;;;;;;;;;;;;;;;;;5046307;28;46294;-76
2022/09/20 00:26:35;;;;;;;;;;;;;;;;;;5064476;28;44002;-76
2022/09/20 00:29:02;;;;;;;;;;;;;;;;;;5065491;28;47874;-76
2022/09/20 00:31:28;;;;;;;;;;;;;;;;;;5047764;28;47185;-76
2022/09/20 00:36:39;;;;;;;;;;;;;;;;;;5064385;28;46969;-76
2022/09/20 00:39:05;;;;;;;;;;;;;;;;;;5065562;28;43886;-76
2022/09/20 00:41:31;;;;;;;;;;;;;;;;;;5065157;28;47729;-76
2022/09/20 00:43:59;;;;;;;;;;;;;;;;;;5046593;28;48320;-77
2022/09/20 00:46:25;;;;;;;;;;;;;;;;;;5043450;28;44062;-77
2022/09/20 00:48:51;;;;;;;;;;;;;;;;;;5045400;28;47797;-77
2022/09/20 00:51:17;;;;;;;;;;;;;;;;;;5045595;28;47159;-76
2022/09/20 00:53:43;;;;;;;;;;;;;;;;;;5060103;28;43723;-76
2022/09/20 00:56:10;;;;;;;;;;;;;;;;;;5066280;28;47782;-76
2022/09/20 00:58:36;;;;;;;;;;;;;;;;;;5047346;28;44087;-77
2022/09/20 01:01:02;;;;;;;;;;;;;;;;;;5065328;28;46732;-76
2022/09/20 01:03:30;;;;;;;;;;;;;;;;;;5063684;28;47616;-77
2022/09/20 01:05:56;;;;;;;;;;;;;;;;;;5045538;28;43941;-76
2022/09/20 01:08:25;;;;;;;;;;;;;;;;;;5061711;28;45523;-76
2022/09/20 01:10:51;;;;;;;;;;;;;;;;;;5054566;28;48212;-76
2022/09/20 01:13:17;;;;;;;;;;;;;;;;;;5054539;28;43479;-76
2022/09/20 01:15:44;;;;;;;;;;;;;;;;;;5066586;28;46763;-76
2022/09/20 01:18:10;;;;;;;;;;;;;;;;;;5080101;28;46435;-76
2022/09/20 01:20:36;;;;;;;;;;;;;;;;;;5067172;28;46665;-76
2022/09/20 01:23:02;;;;;;;;;;;;;;;;;;5041599;28;47237;-76
2022/09/20 01:25:29;;;;;;;;;;;;;;;;;;5045136;28;44008;-76
2022/09/20 01:27:55;;;;;;;;;;;;;;;;;;5062046;28;46836;-76
2022/09/20 01:30:21;;;;;;;;;;;;;;;;;;5061822;28;48444;-76
2022/09/20 01:32:47;;;;;;;;;;;;;;;;;;5062663;28;43981;-76
2022/09/20 01:35:14;;;;;;;;;;;;;;;;;;5045596;28;46478;-76
2022/09/20 01:37:41;;;;;;;;;;;;;;;;;;5048205;28;47085;-76
2022/09/20 01:40:09;;;;;;;;;;;;;;;;;;5030942;28;44691;-76
2022/09/20 01:42:35;;;;;;;;;;;;;;;;;;5062866;28;47525;-76
2022/09/20 01:45:01;;;;;;;;;;;;;;;;;;5065096;28;45514;-76
2022/09/20 01:47:28;;;;;;;;;;;;;;;;;;5067534;28;47005;-76
2022/09/20 01:49:54;;;;;;;;;;;;;;;;;;5050463;28;48590;-75
2022/09/20 01:52:20;;;;;;;;;;;;;;;;;;5062126;28;42871;-76
2022/09/20 01:54:46;;;;;;;;;;;;;;;;;;5062531;28;47079;-76
2022/09/20 01:57:12;;;;;;;;;;;;;;;;;;5068748;28;47008;-76
2022/09/20 01:59:39;;;;;;;;;;;;;;;;;;5068617;28;44381;-76
2022/09/20 02:02:05;;;;;;;;;;;;;;;;;;5047007;28;44967;-76
2022/09/20 02:04:31;;;;;;;;;;;;;;;;;;5059228;28;43973;-76
2022/09/20 02:06:57;;;;;;;;;;;;;;;;;;5068295;28;47056;-76
2022/09/20 02:09:24;;;;;;;;;;;;;;;;;;5048919;28;47324;-76
2022/09/20 02:11:50;;;;;;;;;;;;;;;;;;5065477;28;45093;-76
2022/09/20 02:14:16;;;;;;;;;;;;;;;;;;5048958;28;45687;-76
2022/09/20 02:16:42;;;;;;;;;;;;;;;;;;5068006;28;47211;-76
2022/09/20 02:19:09;;;;;;;;;;;;;;;;;;5055110;28;45246;-76
2022/09/20 02:21:35;;;;;;;;;;;;;;;;;;5037371;28;46662;-76
2022/09/20 02:24:01;;;;;;;;;;;;;;;;;;5049536;28;44989;-76
2022/09/20 02:26:27;;;;;;;;;;;;;;;;;;5067829;28;47713;-76
2022/09/20 02:28:54;;;;;;;;;;;;;;;;;;5044053;28;47294;-76
2022/09/20 02:31:20;;;;;;;;;;;;;;;;;;5059573;28;46548;-76
2022/09/20 02:33:46;;;;;;;;;;;;;;;;;;5046831;28;47471;-76
2022/09/20 02:36:13;;;;;;;;;;;;;;;;;;5067786;28;45271;-76
2022/09/20 02:38:39;;;;;;;;;;;;;;;;;;5065400;28;45454;-76
2022/09/20 02:41:05;;;;;;;;;;;;;;;;;;5050827;28;47815;-76
2022/09/20 02:43:31;;;;;;;;;;;;;;;;;;5049264;28;46950;-76
2022/09/20 02:45:57;;;;;;;;;;;;;;;;;;5049087;28;46644;-76
2022/09/20 02:48:24;;;;;;;;;;;;;;;;;;5067297;28;47242;-76
2022/09/20 02:50:50;;;;;;;;;;;;;;;;;;5066907;28;44326;-76
2022/09/20 02:53:16;;;;;;;;;;;;;;;;;;5063601;28;46770;-76
2022/09/20 02:55:42;;;;;;;;;;;;;;;;;;5066211;28;46895;-76
2022/09/20 02:58:08;;;;;;;;;;;;;;;;;;5066841;28;44017;-76
2022/09/20 03:00:35;;;;;;;;;;;;;;;;;;5066520;28;47709;-76
2022/09/20 03:03:01;;;;;;;;;;;;;;;;;;5061662;28;47227;-76
2022/09/20 03:05:27;;;;;;;;;;;;;;;;;;5066155;28;45017;-76
2022/09/20 03:07:54;;;;;;;;;;;;;;;;;;5046106;28;47305;-76
2022/09/20 03:10:20;;;;;;;;;;;;;;;;;;5070636;28;42453;-76
2022/09/20 03:12:47;;;;;;;;;;;;;;;;;;5045375;28;47738;-76
2022/09/20 03:15:13;;;;;;;;;;;;;;;;;;5047839;28;48388;-76
2022/09/20 03:17:41;;;;;;;;;;;;;;;;;;5048029;28;45379;-76
2022/09/20 03:20:07;;;;;;;;;;;;;;;;;;5067009;28;47813;-77
2022/09/20 03:22:33;;;;;;;;;;;;;;;;;;5056121;28;47192;-77
2022/09/20 03:24:59;;;;;;;;;;;;;;;;;;5066987;28;44071;-77
2022/09/20 03:27:26;;;;;;;;;;;;;;;;;;5051647;28;45427;-77
2022/09/20 03:29:52;;;;;;;;;;;;;;;;;;5045748;28;45428;-77
2022/09/20 03:32:19;;;;;;;;;;;;;;;;;;5046255;28;46637;-77
2022/09/20 03:34:45;;;;;;;;;;;;;;;;;;5048104;28;48500;-77
2022/09/20 03:37:13;;;;;;;;;;;;;;;;;;5046626;28;45061;-77
2022/09/20 03:39:40;;;;;;;;;;;;;;;;;;5050766;28;47610;-77
2022/09/20 03:42:06;;;;;;;;;;;;;;;;;;5045214;28;46159;-77
2022/09/20 03:44:33;;;;;;;;;;;;;;;;;;5051072;28;46121;-76
2022/09/20 03:46:59;;;;;;;;;;;;;;;;;;5074354;28;45027;-77
2022/09/20 03:49:25;;;;;;;;;;;;;;;;;;5066346;28;48319;-77
2022/09/20 03:51:51;;;;;;;;;;;;;;;;;;5044796;28;47721;-77
2022/09/20 03:54:18;;;;;;;;;;;;;;;;;;5046097;28;46166;-77
2022/09/20 03:56:44;;;;;;;;;;;;;;;;;;5064572;28;43657;-77
2022/09/20 03:59:10;;;;;;;;;;;;;;;;;;5048293;28;45692;-77
2022/09/20 04:01:36;;;;;;;;;;;;;;;;;;5058251;28;47175;-75
2022/09/20 04:04:03;;;;;;;;;;;;;;;;;;5066405;28;45088;-75
2022/09/20 04:06:29;;;;;;;;;;;;;;;;;;5039743;28;46701;-76
2022/09/20 04:08:55;;;;;;;;;;;;;;;;;;5065547;28;48352;-76
2022/09/20 04:11:23;;;;;;;;;;;;;;;;;;5065752;28;45317;-76
2022/09/20 04:13:50;;;;;;;;;;;;;;;;;;5047721;28;46230;-75
2022/09/20 04:16:18;;;;;;;;;;;;;;;;;;5065388;28;42360;-76
2022/09/20 04:18:44;;;;;;;;;;;;;;;;;;5065972;28;44910;-76
2022/09/20 04:21:10;;;;;;;;;;;;;;;;;;5057633;28;47383;-76
2022/09/20 04:23:36;;;;;;;;;;;;;;;;;;5046205;28;45126;-76
2022/09/20 04:26:02;;;;;;;;;;;;;;;;;;5040187;28;44436;-76
2022/09/20 04:28:29;;;;;;;;;;;;;;;;;;5066082;28;48373;-76
2022/09/20 04:30:55;;;;;;;;;;;;;;;;;;5063961;28;45102;-76
2022/09/20 04:33:21;;;;;;;;;;;;;;;;;;5065538;28;47019;-76
2022/09/20 04:38:34;;;;;;;;;;;;;;;;;;5065558;28;46063;-76
2022/09/20 04:41:00;;;;;;;;;;;;;;;;;;5059453;28;47332;-75
2022/09/20 04:43:26;;;;;;;;;;;;;;;;;;5065957;28;44385;-76
2022/09/20 04:45:53;;;;;;;;;;;;;;;;;;5065017;28;47269;-76
2022/09/20 04:48:19;;;;;;;;;;;;;;;;;;5064076;28;47297;-77
2022/09/20 04:50:45;;;;;;;;;;;;;;;;;;5063846;28;43827;-76
2022/09/20 04:53:13;;;;;;;;;;;;;;;;;;5062455;28;46640;-76
2022/09/20 04:55:40;;;;;;;;;;;;;;;;;;5064746;28;41647;-76
2022/09/20 04:58:06;;;;;;;;;;;;;;;;;;5060286;28;45663;-77
2022/09/20 05:00:32;;;;;;;;;;;;;;;;;;5045629;28;47309;-76
2022/09/20 05:02:58;;;;;;;;;;;;;;;;;;5058137;28;45150;-76
2022/09/20 05:05:25;;;;;;;;;;;;;;;;;;5033683;28;43375;-77
2022/09/20 05:07:54;;;;;;;;;;;;;;;;;;5046050;28;48466;-77
2022/09/20 05:10:23;;;;;;;;;;;;;;;;;;5064704;28;44079;-76
2022/09/20 05:12:50;;;;;;;;;;;;;;;;;;5031027;28;46909;-77
2022/09/20 05:15:16;;;;;;;;;;;;;;;;;;5068282;28;47464;-76
2022/09/20 05:17:43;;;;;;;;;;;;;;;;;;5085064;28;47849;-76
2022/09/20 05:20:09;;;;;;;;;;;;;;;;;;5066373;28;48387;-77
2022/09/20 05:22:35;;;;;;;;;;;;;;;;;;5067123;28;43125;-77
2022/09/20 05:25:02;;;;;;;;;;;;;;;;;;5045593;28;46700;-77
2022/09/20 05:27:28;;;;;;;;;;;;;;;;;;5048499;28;47245;-77
2022/09/20 05:29:55;;;;;;;;;;;;;;;;;;5044821;28;44184;-77
2022/09/20 05:32:22;;;;;;;;;;;;;;;;;;5068449;28;47928;-77
2022/09/20 05:34:49;;;;;;;;;;;;;;;;;;5062691;28;48353;-77
2022/09/20 05:37:16;;;;;;;;;;;;;;;;;;5048642;28;41247;-77
2022/09/20 05:39:42;;;;;;;;;;;;;;;;;;5068275;28;48309;-77
2022/09/20 05:42:08;;;;;;;;;;;;;;;;;;5065548;28;43744;-77
2022/09/20 05:44:34;;;;;;;;;;;;;;;;;;5063969;28;46768;-77
2022/09/20 05:47:02;;;;;;;;;;;;;;;;;;5062639;28;48012;-77
2022/09/20 05:49:28;;;;;;;;;;;;;;;;;;5049039;28;43894;-77
2022/09/20 05:51:54;;;;;;;;;;;;;;;;;;5060478;28;46409;-77
2022/09/20 05:54:21;;;;;;;;;;;;;;;;;;5052127;28;48293;-77
2022/09/20 05:56:47;;;;;;;;;;;;;;;;;;5067860;28;44056;-77
2022/09/20 05:59:14;;;;;;;;;;;;;;;;;;5055126;28;46072;-77
2022/09/20 06:01:40;;;;;;;;;;;;;;;;;;5056799;28;43803;-77
2022/09/20 06:04:07;;;;;;;;;;;;;;;;;;5040130;28;45180;-77
2022/09/20 06:06:33;;;;;;;;;;;;;;;;;;5049069;28;47154;-77
2022/09/20 06:08:59;;;;;;;;;;;;;;;;;;5066665;28;45168;-76
2022/09/20 06:11:26;;;;;;;;;;;;;;;;;;5064663;28;46733;-77
2022/09/20 06:14:02;;;;;;;;;;;;;;;;;;5039253;28;45802;-77
2022/09/20 06:16:28;;;;;;;;;;;;;;;;;;5055811;28;44097;-77
2022/09/20 06:18:55;;;;;;;;;;;;;;;;;;5060606;28;47764;-77
2022/09/20 06:21:21;;;;;;;;;;;;;;;;;;5058638;28;35804;-77
2022/09/20 06:23:47;;;;;;;;;;;;;;;;;;5047014;28;47851;-77
2022/09/20 06:26:13;;;;;;;;;;;;;;;;;;5066846;28;46232;-77
2022/09/20 06:28:40;;;;;;;;;;;;;;;;;;5046417;28;45128;-77
2022/09/20 06:31:09;;;;;;;;;;;;;;;;;;5042292;28;46486;-77
2022/09/20 06:33:36;;;;;;;;;;;;;;;;;;5055329;28;48127;-77
2022/09/20 06:41:25;;;;;;;;;;;;;;;;;;5043202;28;43845;-77
2022/09/20 06:41:33;;;;;;;;;;;;;;;;;;5065105;28;47056;-77
2022/09/20 06:43:59;;;;;;;;;;;;;;;;;;5053500;28;47069;-76
2022/09/20 06:46:26;;;;;;;;;;;;;;;;;;5040633;28;45697;-76
2022/09/20 06:48:54;;;;;;;;;;;;;;;;;;5054461;28;45342;-76
2022/09/20 06:51:20;;;;;;;;;;;;;;;;;;5051806;28;45615;-76
2022/09/20 06:53:46;;;;;;;;;;;;;;;;;;5040705;28;47634;-76
2022/09/20 06:56:13;;;;;;;;;;;;;;;;;;5066434;28;43559;-76
2022/09/20 06:58:39;;;;;;;;;;;;;;;;;;5045482;28;47760;-76
2022/09/20 07:01:05;;;;;;;;;;;;;;;;;;5067261;28;47268;-76
2022/09/20 07:03:32;;;;;;;;;;;;;;;;;;5052099;28;44851;-76
2022/09/20 07:05:59;;;;;;;;;;;;;;;;;;5063389;28;48353;-76
2022/09/20 07:08:25;;;;;;;;;;;;;;;;;;5054591;28;43133;-76
2022/09/20 07:10:51;;;;;;;;;;;;;;;;;;5052163;28;48226;-76
2022/09/20 07:13:19;;;;;;;;;;;;;;;;;;5045587;28;46934;-76
2022/09/20 07:15:45;;;;;;;;;;;;;;;;;;5067100;28;43864;-76
2022/09/20 07:18:11;;;;;;;;;;;;;;;;;;5046803;28;46734;-76
2022/09/20 07:20:38;;;;;;;;;;;;;;;;;;5066039;28;45475;-76
2022/09/20 07:23:04;;;;;;;;;;;;;;;;;;5047848;28;43937;-76
2022/09/20 07:25:30;;;;;;;;;;;;;;;;;;5063137;28;46806;-75
2022/09/20 07:27:57;;;;;;;;;;;;;;;;;;5060751;28;44240;-76
2022/09/20 07:30:23;;;;;;;;;;;;;;;;;;5060331;28;47726;-76
2022/09/20 07:32:49;;;;;;;;;;;;;;;;;;5064060;28;48456;-76
2022/09/20 07:35:15;;;;;;;;;;;;;;;;;;5038760;28;43856;-76
2022/09/20 07:37:41;;;;;;;;;;;;;;;;;;5050354;28;48119;-76
2022/09/20 07:40:08;;;;;;;;;;;;;;;;;;5049895;28;45289;-76
2022/09/20 07:42:35;;;;;;;;;;;;;;;;;;5064315;28;42577;-77
2022/09/20 07:45:02;;;;;;;;;;;;;;;;;;5071062;28;46849;-76
2022/09/20 07:47:30;;;;;;;;;;;;;;;;;;5079521;28;47300;-77
2022/09/20 07:49:57;;;;;;;;;;;;;;;;;;5067382;28;48158;-77
2022/09/20 07:52:23;;;;;;;;;;;;;;;;;;5059795;28;47331;-77
2022/09/20 07:54:49;;;;;;;;;;;;;;;;;;5049546;28;45415;-76
2022/09/20 07:57:15;;;;;;;;;;;;;;;;;;5067399;28;45241;-76
2022/09/20 07:59:42;;;;;;;;;;;;;;;;;;5061046;28;47257;-76
2022/09/20 08:02:08;;;;;;;;;;;;;;;;;;5068121;28;45146;-76
2022/09/20 08:04:35;;;;;;;;;;;;;;;;;;5054391;28;43796;-76
2022/09/20 08:07:01;;;;;;;;;;;;;;;;;;5063471;28;47240;-76
2022/09/20 08:09:27;;;;;;;;;;;;;;;;;;5047291;28;43881;-76
2022/09/20 08:11:55;;;;;;;;;;;;;;;;;;5063719;28;48352;-76
2022/09/20 08:14:21;;;;;;;;;;;;;;;;;;5063831;28;44553;-76
2022/09/20 08:16:55;;;;;;;;;;;;;;;;;;5028179;28;47465;-76
2022/09/20 08:19:29;;;;;;;;;;;;;;;;;;5042310;28;48101;-76
2022/09/20 08:21:55;;;;;;;;;;;;;;;;;;5060820;28;45156;-76
2022/09/20 08:24:21;;;;;;;;;;;;;;;;;;5045834;28;46971;-76
2022/09/20 08:26:47;;;;;;;;;;;;;;;;;;5066609;28;48638;-75
2022/09/20 08:29:14;;;;;;;;;;;;;;;;;;5062788;28;44372;-76
2022/09/20 08:31:41;;;;;;;;;;;;;;;;;;5062894;28;47174;-76
2022/09/20 08:34:08;;;;;;;;;;;;;;;;;;5039340;28;43611;-76
2022/09/20 08:36:34;;;;;;;;;;;;;;;;;;5059047;28;46592;-76
2022/09/20 08:39:05;;;;;;;;;;;;;;;;;;5060615;28;48317;-76
2022/09/20 08:42:03;;;;;;;;;;;;;;;;;;5061961;28;19929;-76
2022/09/20 08:44:32;;;;;;;;;;;;;;;;;;5063956;28;47573;-76
2022/09/20 08:47:01;;;;;;;;;;;;;;;;;;5056244;28;48081;-76
2022/09/20 08:49:27;;;;;;;;;;;;;;;;;;5043062;28;44523;-76
2022/09/20 08:51:56;;;;;;;;;;;;;;;;;;5050055;28;48178;-76
2022/09/20 08:54:23;;;;;;;;;;;;;;;;;;5057786;28;45279;-76
2022/09/20 08:56:49;;;;;;;;;;;;;;;;;;5054198;28;47475;-76
2022/09/20 08:59:18;;;;;;;;;;;;;;;;;;5039780;28;47204;-76
2022/09/20 09:01:45;;;;;;;;;;;;;;;;;;5063922;28;45403;-76
2022/09/20 09:04:12;;;;;;;;;;;;;;;;;;5047285;28;46643;-76
2022/09/20 09:06:38;;;;;;;;;;;;;;;;;;5057155;28;47417;-76
2022/09/20 09:09:07;;;;;;;;;;;;;;;;;;5057823;28;42526;-76
2022/09/20 09:11:33;;;;;;;;;;;;;;;;;;5041760;28;45889;-76
2022/09/20 09:14:03;;;;;;;;;;;;;;;;;;5063472;28;48302;-76
2022/09/20 09:16:29;;;;;;;;;;;;;;;;;;5048232;28;46374;-76
2022/09/20 09:19:00;;;;;;;;;;;;;;;;;;5082268;28;45839;-76
2022/09/20 09:21:27;;;;;;;;;;;;;;;;;;5061193;28;44059;-76
2022/09/20 09:23:57;;;;;;;;;;;;;;;;;;5063738;28;45923;-76
2022/09/20 09:26:23;;;;;;;;;;;;;;;;;;5044275;28;46817;-76
2022/09/20 09:28:50;;;;;;;;;;;;;;;;;;5060932;28;46400;-76
2022/09/20 09:31:16;;;;;;;;;;;;;;;;;;5062784;28;45392;-76
2022/09/20 09:33:43;;;;;;;;;;;;;;;;;;5046715;28;48227;-76
2022/09/20 09:36:09;;;;;;;;;;;;;;;;;;5046317;28;42886;-76
2022/09/20 09:38:35;;;;;;;;;;;;;;;;;;5062225;28;47651;-76
2022/09/20 09:41:02;;;;;;;;;;;;;;;;;;5044738;28;45113;-76
2022/09/20 09:43:28;;;;;;;;;;;;;;;;;;5043280;28;47842;-76
2022/09/20 09:45:55;;;;;;;;;;;;;;;;;;5065134;28;48381;-76
2022/09/20 09:48:21;;;;;;;;;;;;;;;;;;5047448;28;45330;-76
2022/09/20 09:50:47;;;;;;;;;;;;;;;;;;5062006;28;47855;-75
2022/09/20 09:53:14;;;;;;;;;;;;;;;;;;5071547;28;47153;-76
2022/09/20 09:55:40;;;;;;;;;;;;;;;;;;5038787;28;41432;-76
2022/09/20 09:58:09;;;;;;;;;;;;;;;;;;5055619;28;45022;-76
2022/09/20 10:00:41;;;;;;;;;;;;;;;;;;5033985;28;45029;-77
2022/09/20 10:03:08;;;;;;;;;;;;;;;;;;5057421;28;46663;-77
2022/09/20 10:05:34;;;;;;;;;;;;;;;;;;5063169;28;47200;-76
2022/09/20 10:08:00;;;;;;;;;;;;;;;;;;5052531;28;44998;-76
2022/09/20 10:10:27;;;;;;;;;;;;;;;;;;5072585;28;46721;-76
2022/09/20 10:12:53;;;;;;;;;;;;;;;;;;5063857;28;48564;-76
2022/09/20 10:15:21;;;;;;;;;;;;;;;;;;5064113;28;42902;-76
2022/09/20 10:17:48;;;;;;;;;;;;;;;;;;5047341;28;47904;-77
2022/09/20 10:20:14;;;;;;;;;;;;;;;;;;5066110;28;48296;-76
2022/09/20 10:22:40;;;;;;;;;;;;;;;;;;5045994;28;45506;-76
2022/09/20 10:25:09;;;;;;;;;;;;;;;;;;5064982;28;47281;-76
2022/09/20 10:27:35;;;;;;;;;;;;;;;;;;5064396;28;42877;-76
2022/09/20 10:30:02;;;;;;;;;;;;;;;;;;5061714;28;46063;-76
2022/09/20 10:32:28;;;;;;;;;;;;;;;;;;5048339;28;47296;-76
2022/09/20 10:34:54;;;;;;;;;;;;;;;;;;5048197;28;44418;-76
2022/09/20 10:37:21;;;;;;;;;;;;;;;;;;5047488;28;46635;-76
2022/09/20 10:39:47;;;;;;;;;;;;;;;;;;5064022;28;48421;-76
2022/09/20 10:44:59;;;;;;;;;;;;;;;;;;5064806;28;47761;-76
2022/09/20 10:47:25;;;;;;;;;;;;;;;;;;5049412;28;45144;-76
2022/09/20 10:49:55;;;;;;;;;;;;;;;;;;5060908;28;44566;-76
2022/09/20 10:52:26;;;;;;;;;;;;;;;;;;5065440;28;48405;-77
2022/09/20 10:54:52;;;;;;;;;;;;;;;;;;5067643;28;44019;-76
2022/09/20 10:57:18;;;;;;;;;;;;;;;;;;5062536;28;44034;-76
2022/09/20 10:59:47;;;;;;;;;;;;;;;;;;5037554;28;47013;-76
2022/09/20 11:02:15;;;;;;;;;;;;;;;;;;5049228;28;43784;-76
2022/09/20 11:04:41;;;;;;;;;;;;;;;;;;5063694;28;48170;-76
2022/09/20 11:07:08;;;;;;;;;;;;;;;;;;5048200;28;45789;-76
2022/09/20 11:09:34;;;;;;;;;;;;;;;;;;5065308;28;47405;-76
2022/09/20 11:12:02;;;;;;;;;;;;;;;;;;5049294;28;37273;-77
2022/09/20 11:14:32;;;;;;;;;;;;;;;;;;5044603;28;45039;-76
2022/09/20 11:16:59;;;;;;;;;;;;;;;;;;5041308;28;47869;-76
2022/09/20 11:19:32;;;;;;;;;;;;;;;;;;5059716;28;47775;-76
2022/09/20 11:22:05;;;;;;;;;;;;;;;;;;5044449;28;43662;-76
2022/09/20 11:24:31;;;;;;;;;;;;;;;;;;5052130;28;46641;-76
2022/09/20 11:27:00;;;;;;;;;;;;;;;;;;5029396;28;44036;-76
2022/09/20 11:29:26;;;;;;;;;;;;;;;;;;5045550;28;47811;-76
2022/09/20 11:31:53;;;;;;;;;;;;;;;;;;5048058;28;48448;-76
2022/09/20 11:34:22;;;;;;;;;;;;;;;;;;5057514;28;44970;-77
2022/09/20 11:36:52;;;;;;;;;;;;;;;;;;5065922;28;46740;-76
2022/09/20 11:39:18;;;;;;;;;;;;;;;;;;5042044;28;45988;-77
2022/09/20 11:41:45;;;;;;;;;;;;;;;;;;5046571;28;45083;-76
2022/09/20 11:44:11;;;;;;;;;;;;;;;;;;5064994;28;46773;-77
2022/09/20 11:46:37;;;;;;;;;;;;;;;;;;5049954;28;47239;-77
2022/09/20 11:49:03;;;;;;;;;;;;;;;;;;5054529;28;47010;-76
2022/09/20 11:51:30;;;;;;;;;;;;;;;;;;5054325;28;47305;-76
2022/09/20 11:53:56;;;;;;;;;;;;;;;;;;5055868;28;44055;-77
2022/09/20 11:56:25;;;;;;;;;;;;;;;;;;5065833;28;46431;-77
2022/09/20 11:58:51;;;;;;;;;;;;;;;;;;5066429;28;48460;-76
2022/09/20 12:01:17;;;;;;;;;;;;;;;;;;5065324;28;45122;-77
2022/09/20 12:03:44;;;;;;;;;;;;;;;;;;5058707;28;47807;-77
2022/09/20 12:06:10;;;;;;;;;;;;;;;;;;5063105;28;47124;-77
2022/09/20 12:08:36;;;;;;;;;;;;;;;;;;5066034;28;45106;-76
2022/09/20 12:11:03;;;;;;;;;;;;;;;;;;5040768;28;47290;-77
2022/09/20 12:13:29;;;;;;;;;;;;;;;;;;5036404;28;41451;-74
2022/09/20 12:15:55;;;;;;;;;;;;;;;;;;5048400;28;47792;-77
2022/09/20 12:18:22;;;;;;;;;;;;;;;;;;5045333;28;46172;-77
2022/09/20 12:20:48;;;;;;;;;;;;;;;;;;5041053;28;45049;-77
2022/09/20 12:23:14;;;;;;;;;;;;;;;;;;5062745;28;47771;-77
2022/09/20 12:25:41;;;;;;;;;;;;;;;;;;5052755;28;46653;-77
2022/09/20 12:28:07;;;;;;;;;;;;;;;;;;5058733;28;43381;-77
2022/09/20 12:30:33;;;;;;;;;;;;;;;;;;5053077;28;46764;-77
2022/09/20 12:32:59;;;;;;;;;;;;;;;;;;5059197;28;44997;-77
2022/09/20 12:35:26;;;;;;;;;;;;;;;;;;5064700;28;46686;-77
2022/09/20 12:37:52;;;;;;;;;;;;;;;;;;5057825;28;48502;-77
2022/09/20 12:40:18;;;;;;;;;;;;;;;;;;5064877;28;43813;-77
2022/09/20 12:42:44;;;;;;;;;;;;;;;;;;5061069;28;46201;-77
2022/09/20 12:45:13;;;;;;;;;;;;;;;;;;5043348;28;45601;-77
2022/09/20 12:47:39;;;;;;;;;;;;;;;;;;5063858;28;43844;-77
2022/09/20 12:52:56;;;;;;;;;;;;;;;;;;5072464;28;44143;-79
2022/09/20 12:55:23;;;;;;;;;;;;;;;;;;5054708;28;46248;-78
2022/09/20 12:57:50;;;;;;;;;;;;;;;;;;5053612;28;45205;-79
2022/09/20 13:00:16;;;;;;;;;;;;;;;;;;5052073;28;41730;-78
2022/09/20 13:02:43;;;;;;;;;;;;;;;;;;5045248;28;46633;-78
2022/09/20 13:05:10;;;;;;;;;;;;;;;;;;5062533;28;50141;-77
2022/09/20 13:07:36;;;;;;;;;;;;;;;;;;5056946;28;42658;-79
2022/09/20 13:10:07;;;;;;;;;;;;;;;;;;5050118;28;45608;-80
2022/09/20 13:12:33;;;;;;;;;;;;;;;;;;5054814;28;45162;-79
2022/09/20 13:15:00;;;;;;;;;;;;;;;;;;5057139;28;48844;-76
2022/09/20 13:17:28;;;;;;;;;;;;;;;;;;5054909;28;46475;-77
2022/09/20 13:19:56;;;;;;;;;;;;;;;;;;5056308;28;45132;-77
2022/09/20 13:22:22;;;;;;;;;;;;;;;;;;5056122;28;45136;-78
2022/09/20 13:24:48;;;;;;;;;;;;;;;;;;5062853;28;48405;-77
2022/09/20 13:27:15;;;;;;;;;;;;;;;;;;5048314;28;43492;-78
2022/09/20 13:29:44;;;;;;;;;;;;;;;;;;5051686;28;46337;-77
2022/09/20 13:32:11;;;;;;;;;;;;;;;;;;5069024;28;46257;-76
2022/09/20 13:34:37;;;;;;;;;;;;;;;;;;5053833;28;44637;-78
2022/09/20 13:37:03;;;;;;;;;;;;;;;;;;5058913;28;48249;-79
2022/09/20 13:39:29;;;;;;;;;;;;;;;;;;5072736;28;42822;-77
2022/09/20 13:42:01;;;;;;;;;;;;;;;;;;5043680;28;45202;-78
2022/09/20 13:44:27;;;;;;;;;;;;;;;;;;5053632;28;45994;-78
2022/09/20 13:46:53;;;;;;;;;;;;;;;;;;5057793;28;45859;-78
2022/09/20 13:49:21;;;;;;;;;;;;;;;;;;5079666;28;46404;-77
2022/09/20 13:51:47;;;;;;;;;;;;;;;;;;5061120;28;47457;-78
2022/09/20 13:54:13;;;;;;;;;;;;;;;;;;5056598;28;43413;-78
2022/09/20 13:56:40;;;;;;;;;;;;;;;;;;5060340;28;44407;-77
2022/09/20 13:59:06;;;;;;;;;;;;;;;;;;5042249;28;43738;-77
2022/09/20 14:01:32;;;;;;;;;;;;;;;;;;5053888;28;45566;-77
2022/09/20 14:03:59;;;;;;;;;;;;;;;;;;5068676;28;45545;-76
2022/09/20 14:06:26;;;;;;;;;;;;;;;;;;5073496;28;42574;-76
2022/09/20 14:08:53;;;;;;;;;;;;;;;;;;5053488;28;46597;-77
2022/09/20 14:11:19;;;;;;;;;;;;;;;;;;5052154;28;48049;-77
2022/09/20 14:13:45;;;;;;;;;;;;;;;;;;5068223;28;43921;-77
2022/09/20 14:16:11;;;;;;;;;;;;;;;;;;5057956;28;46254;-78
2022/09/20 14:18:37;;;;;;;;;;;;;;;;;;5054832;28;48401;-77
2022/09/20 14:21:04;;;;;;;;;;;;;;;;;;5075584;28;47098;-77
2022/09/20 14:23:30;;;;;;;;;;;;;;;;;;5055100;28;47148;-77
2022/09/20 14:25:57;;;;;;;;;;;;;;;;;;5050122;28;41838;-77
2022/09/20 14:28:23;;;;;;;;;;;;;;;;;;5060319;28;47535;-78
2022/09/20 14:30:53;;;;;;;;;;;;;;;;;;5061183;28;45282;-78
2022/09/20 14:33:20;;;;;;;;;;;;;;;;;;5059780;28;44053;-79
2022/09/20 14:35:46;;;;;;;;;;;;;;;;;;5052336;28;44344;-78
2022/09/20 14:38:12;;;;;;;;;;;;;;;;;;5059754;28;45462;-78
2022/09/20 14:40:38;;;;;;;;;;;;;;;;;;5057266;28;42642;-78
2022/09/20 14:43:05;;;;;;;;;;;;;;;;;;5059134;28;44771;-78
2022/09/20 14:45:31;;;;;;;;;;;;;;;;;;5058053;28;43110;-78
2022/09/20 14:47:57;;;;;;;;;;;;;;;;;;5057809;28;46885;-77
2022/09/20 14:50:23;;;;;;;;;;;;;;;;;;5054302;28;45885;-78
2022/09/20 14:52:50;;;;;;;;;;;;;;;;;;5054511;28;44022;-78
2022/09/20 14:55:16;;;;;;;;;;;;;;;;;;5057463;28;46584;-78
2022/09/20 14:57:42;;;;;;;;;;;;;;;;;;5071218;28;45511;-78
2022/09/20 15:00:08;;;;;;;;;;;;;;;;;;5058740;28;42833;-78
2022/09/20 15:02:35;;;;;;;;;;;;;;;;;;5055949;28;45774;-79
2022/09/20 15:05:01;;;;;;;;;;;;;;;;;;5054309;28;43831;-78
2022/09/20 15:07:27;;;;;;;;;;;;;;;;;;5052127;28;46657;-78
2022/09/20 15:09:53;;;;;;;;;;;;;;;;;;5050936;28;47238;-78
2022/09/20 15:12:23;;;;;;;;;;;;;;;;;;5054197;28;45005;-78
2022/09/20 15:14:49;;;;;;;;;;;;;;;;;;5062353;28;44893;-78
2022/09/20 15:17:18;;;;;;;;;;;;;;;;;;5071030;28;46465;-78
2022/09/20 15:19:45;;;;;;;;;;;;;;;;;;5053510;28;43226;-77
2022/09/20 15:22:13;;;;;;;;;;;;;;;;;;5055613;28;45413;-78
2022/09/20 15:24:39;;;;;;;;;;;;;;;;;;5054798;28;42221;-78
2022/09/20 15:27:05;;;;;;;;;;;;;;;;;;5057387;28;45748;-76
2022/09/20 15:29:31;;;;;;;;;;;;;;;;;;5070745;28;47247;-76
2022/09/20 15:31:57;;;;;;;;;;;;;;;;;;5052954;28;43992;-77
2022/09/20 15:34:24;;;;;;;;;;;;;;;;;;5076704;28;46509;-77
2022/09/20 15:36:50;;;;;;;;;;;;;;;;;;5069433;28;47584;-77
2022/09/20 15:39:16;;;;;;;;;;;;;;;;;;5066566;28;43213;-78
2022/09/20 15:41:44;;;;;;;;;;;;;;;;;;5071567;28;44674;-78
2022/09/20 15:44:11;;;;;;;;;;;;;;;;;;5053654;28;47272;-77
2022/09/20 15:46:37;;;;;;;;;;;;;;;;;;5070542;28;47093;-78
2022/09/20 15:49:05;;;;;;;;;;;;;;;;;;5060215;28;45155;-76
2022/09/20 15:51:31;;;;;;;;;;;;;;;;;;5048793;28;45122;-76
2022/09/20 15:53:58;;;;;;;;;;;;;;;;;;5057504;28;44958;-76
2022/09/20 15:56:24;;;;;;;;;;;;;;;;;;5045312;28;46950;-76
2022/09/20 15:58:50;;;;;;;;;;;;;;;;;;5047779;28;45059;-76
2022/09/20 16:01:16;;;;;;;;;;;;;;;;;;5042346;28;45529;-76
2022/09/20 16:03:42;;;;;;;;;;;;;;;;;;5066201;28;47347;-76
2022/09/20 16:06:09;;;;;;;;;;;;;;;;;;5060390;28;44069;-76
2022/09/20 16:08:35;;;;;;;;;;;;;;;;;;5064552;28;47324;-76
2022/09/20 16:11:02;;;;;;;;;;;;;;;;;;5045939;28;44069;-76
2022/09/20 16:13:31;;;;;;;;;;;;;;;;;;5058219;28;46787;-76
2022/09/20 16:16:00;;;;;;;;;;;;;;;;;;5065626;28;46693;-76
2022/09/20 16:21:11;;;;;;;;;;;;;;;;;;5056216;28;46650;-76
2022/09/20 16:23:37;;;;;;;;;;;;;;;;;;5045346;28;47357;-77
2022/09/20 16:26:04;;;;;;;;;;;;;;;;;;5077532;28;43914;-76
2022/09/20 16:28:30;;;;;;;;;;;;;;;;;;5058797;28;46122;-76
2022/09/20 16:30:56;;;;;;;;;;;;;;;;;;5063697;28;45074;-77
2022/09/20 16:33:22;;;;;;;;;;;;;;;;;;5056857;28;45647;-76
2022/09/20 16:35:49;;;;;;;;;;;;;;;;;;5059986;28;48412;-76
2022/09/20 16:38:15;;;;;;;;;;;;;;;;;;5056672;28;44049;-77
2022/09/20 16:40:41;;;;;;;;;;;;;;;;;;5065298;28;46730;-77
2022/09/20 16:43:08;;;;;;;;;;;;;;;;;;5048888;28;47177;-77
2022/09/20 16:45:34;;;;;;;;;;;;;;;;;;5061004;28;44939;-77
2022/09/20 16:48:01;;;;;;;;;;;;;;;;;;5046004;28;44899;-79
2022/09/20 16:50:31;;;;;;;;;;;;;;;;;;5045087;28;34415;-78
2022/09/20 16:52:57;;;;;;;;;;;;;;;;;;5069091;28;46755;-79
2022/09/20 16:55:24;;;;;;;;;;;;;;;;;;5067420;28;47000;-78
2022/09/20 16:57:50;;;;;;;;;;;;;;;;;;5051069;28;44036;-78
2022/09/20 17:00:20;;;;;;;;;;;;;;;;;;5050147;28;45367;-78
2022/09/20 17:02:47;;;;;;;;;;;;;;;;;;5043839;28;48439;-81
2022/09/20 17:05:14;;;;;;;;;;;;;;;;;;5039274;28;44275;-79
2022/09/20 17:07:41;;;;;;;;;;;;;;;;;;5043802;28;46775;-78
2022/09/20 17:10:07;;;;;;;;;;;;;;;;;;5045815;28;46929;-78